Wind Jammer — 1270592 — position and weather

sailwx.info

Track history (hours):
 
Tides and Currents Weather Stations Pressure Air Temp Water Temp Dewpoint Dewpoint Depression Visibility Wind Speed Wind Dir Waves Ship Positions

Wind Jammer

Last reported at 2018-Feb-19 04:49 UTC. Time now 2018-Jun-23 16:01 UTC.
Position S 27°53' E 153°32'.
Warning: this ship's position is months out of date.

Length 18 m.

Type: Sailing vessel. MMSI: 338310499.

Date/timePositionNaut miles runAvg speedWind from/ knotsBaromVisibWave heightAir tempDewpointWater temp
2018-Feb-19 04:49S 27°53' E 153°32'  
2018-Feb-11 07:32S 27°58' E 153°25'0 3.4
2018-Feb-11 07:24S 27°58' E 153°25'1 0.8
2018-Feb-11 05:50S 27°59' E 153°26'7 4.3
2018-Feb-11 04:17S 28°04' E 153°30'2 6.5
2018-Feb-11 03:59S 28°06' E 153°31'1 1.8
2018-Feb-11 03:17S 28°05' E 153°31'5 5.9
2018-Feb-11 02:30S 28°00' E 153°30'3 5.8
2018-Feb-11 01:57S 27°57' E 153°29'2 5.4
2018-Feb-11 01:30S 27°55' E 153°28'  
Track history (hours):
 
Tides and Currents Weather Stations Pressure Air Temp Water Temp Dewpoint Dewpoint Depression Visibility Wind Speed Wind Dir Waves Ship Positions

Wind Jammer

Last reported at 2018-Feb-19 04:49 UTC. Time now 2018-Jun-23 16:01 UTC.
Position S 27°53' E 153°32'.
Warning: this ship's position is months out of date.

Length 18 m.

Type: Sailing vessel. MMSI: 338310499.

Date/timePositionNaut miles runAvg speedWind from/ knotsBaromVisibWave heightAir tempDewpointWater temp
2018-Feb-19 04:49S 27°53' E 153°32'  
2018-Feb-11 07:32S 27°58' E 153°25'0 3.4
2018-Feb-11 07:24S 27°58' E 153°25'1 0.8
2018-Feb-11 05:50S 27°59' E 153°26'7 4.3
2018-Feb-11 04:17S 28°04' E 153°30'2 6.5
2018-Feb-11 03:59S 28°06' E 153°31'1 1.8
2018-Feb-11 03:17S 28°05' E 153°31'5 5.9
2018-Feb-11 02:30S 28°00' E 153°30'3 5.8
2018-Feb-11 01:57S 27°57' E 153°29'2 5.4
2018-Feb-11 01:30S 27°55' E 153°28'  

Dump ship's entire track history